logo
Search for airport 
image banner adimage banner adimage banner ad
image banner ad

KBTV - Patrick Leahy Burlington Intl

Located in Burlington, United States

ICAO - BTV, IATA - BTV

Data provided by Airmate  

General information

Coordinates: N44°28'19" W73°9'12"
Elevation is 334 feet MSL.
Magnetic variation is -15° East
View others Airports in Vermont

Operational data

Special qualification required
Current time UTC:
Current local time:
Weather
METAR: KBTV 270254Z 00000KT 10SM SCT065 19/14 A2991 RMK AO2 SLP126 T01890144 50001
TAF: KBTV 262333Z 2700/2724 32005KT P6SM FEW080 FM270600 14006KT P6SM BKN080 FM271200 15012KT P6SM BKN040 WS020/17045KT FM271800 14016G27KT P6SM VCSH SCT025 OVC035 WS020/17045KT FM272100 15016G26KT P6SM -SHRA OVC025 WS020/17050KT
View NOTAMs / SUP AIP / TFR affecting this airport [VIEW]
Communications frequencies: [VIEW]

Runways:

RWY identifierQFULength (ft)Width (ft)SurfaceLDA (ft)
01351°411275ASPH3386
19171°411275ASPH3386
15131°8319150OTHER7820
33311°8319150OTHER7820

Airport contact information

Address: Burlington United States

Other aviation service providers

Flight schools

Vermont Flight Academy

Vermont Flight Academy
office@flyvfa.org+1(855)863-5988

Satellite view of KBTV